Time;durP1;ratioP1;P1;durP2;ratioP2;P2;SDS_P1;SDS_P2;PMS_P1;PMS_P2;Temp;Humidity;BMP_temperature;BMP_pressure;BME280_temperature;BME280_humidity;BME280_pressure;Samples;Min_cycle;Max_cycle;Signal;HPM_P1;HPM_P2
2021/05/26 00:03:53;;;;;;;;;;;9.10;99.90;;;;;;10346676;28;20342;-82
2021/05/26 00:08:55;;;;;;;;;;;9.20;99.90;;;;;;10372889;28;19925;-81
2021/05/26 00:13:57;;;;;;;;;;;9.20;99.90;;;;;;10332337;28;20508;-81
2021/05/26 00:18:59;;;;;;;;;;;9.30;99.90;;;;;;10360956;28;20275;-81
2021/05/26 00:24:01;;;;;;;;;;;9.20;99.90;;;;;;10331495;28;19961;-81
2021/05/26 00:29:03;;;;;;;;;;;9.20;99.90;;;;;;10330173;28;20766;-81
2021/05/26 00:34:05;;;;;;;;;;;9.30;99.90;;;;;;10338742;28;20009;-81
2021/05/26 00:39:06;;;;;;;;;;;9.30;99.90;;;;;;10330471;28;19984;-81
2021/05/26 00:44:08;;;;;;;;;;;9.30;99.90;;;;;;10338607;28;19973;-81
2021/05/26 00:49:10;;;;;;;;;;;9.40;99.90;;;;;;10346387;28;19926;-81
2021/05/26 00:54:12;;;;;;;;;;;9.30;99.90;;;;;;10363997;28;19961;-81
2021/05/26 00:59:14;;;;;;;;;;;9.30;99.90;;;;;;10344330;28;20252;-81
2021/05/26 01:04:16;;;;;;;;;;;9.30;99.90;;;;;;10343087;28;19930;-80
2021/05/26 01:09:18;;;;;;;;;;;9.30;99.90;;;;;;10332976;28;19992;-81
2021/05/26 01:14:20;;;;;;;;;;;9.20;99.90;;;;;;10266034;28;1868750;-81
2021/05/26 01:19:22;;;;;;;;;;;9.10;99.90;;;;;;10357624;28;19972;-81
2021/05/26 01:24:23;;;;;;;;;;;9.10;99.90;;;;;;10339639;28;19948;-81
2021/05/26 01:29:25;;;;;;;;;;;9.00;99.90;;;;;;10368701;28;19925;-81
2021/05/26 01:34:27;;;;;;;;;;;9.00;99.90;;;;;;10369873;28;19929;-81
2021/05/26 01:39:29;;;;;;;;;;;9.10;99.90;;;;;;10356124;28;20299;-81
2021/05/26 01:44:35;;;;;;;;;;;8.90;99.90;;;;;;10329564;28;19969;-81
2021/05/26 01:49:36;;;;;;;;;;;8.90;99.90;;;;;;10362042;28;20037;-81
2021/05/26 01:54:38;;;;;;;;;;;9.00;99.90;;;;;;10331438;28;19985;-80
2021/05/26 01:59:41;;;;;;;;;;;9.00;99.90;;;;;;10365697;28;19957;-80
2021/05/26 02:04:42;;;;;;;;;;;9.00;99.90;;;;;;10370893;28;19936;-80
2021/05/26 02:09:44;;;;;;;;;;;9.00;99.90;;;;;;10361572;28;20006;-80
2021/05/26 02:14:46;;;;;;;;;;;9.00;99.90;;;;;;10351070;28;20908;-80
2021/05/26 02:19:48;;;;;;;;;;;9.00;99.90;;;;;;10360059;28;20016;-80
2021/05/26 02:24:50;;;;;;;;;;;9.10;99.90;;;;;;10334297;28;20280;-80
2021/05/26 02:29:52;;;;;;;;;;;9.10;99.90;;;;;;10344525;28;19957;-80
2021/05/26 02:34:54;;;;;;;;;;;9.00;99.90;;;;;;10357516;28;19925;-81
2021/05/26 02:39:56;;;;;;;;;;;9.10;99.90;;;;;;10357304;28;19980;-80
2021/05/26 02:44:58;;;;;;;;;;;9.00;99.90;;;;;;10348543;28;19932;-80
2021/05/26 02:50:00;;;;;;;;;;;9.00;99.90;;;;;;10358630;28;19964;-80
2021/05/26 02:55:02;;;;;;;;;;;8.90;99.90;;;;;;10355009;28;19972;-80
2021/05/26 03:00:05;;;;;;;;;;;8.90;99.90;;;;;;10372818;28;19929;-80
2021/05/26 03:05:07;;;;;;;;;;;8.90;99.90;;;;;;10363307;28;19984;-80
2021/05/26 03:10:10;;;;;;;;;;;8.90;99.90;;;;;;10326262;28;19930;-80
2021/05/26 03:15:14;;;;;;;;;;;9.00;99.90;;;;;;10340104;28;20021;-80
2021/05/26 03:20:16;;;;;;;;;;;9.10;99.90;;;;;;10335927;28;19940;-80
2021/05/26 03:25:18;;;;;;;;;;;9.10;99.90;;;;;;10346432;28;19980;-80
2021/05/26 03:30:20;;;;;;;;;;;9.10;99.90;;;;;;10326324;28;19980;-80
2021/05/26 03:35:22;;;;;;;;;;;9.00;99.90;;;;;;10378010;28;19929;-80
2021/05/26 03:40:24;;;;;;;;;;;9.00;99.90;;;;;;10326175;28;19926;-80
2021/05/26 03:45:27;;;;;;;;;;;8.90;99.90;;;;;;10340339;28;20387;-80
2021/05/26 03:50:29;;;;;;;;;;;9.00;99.90;;;;;;10364668;28;20031;-80
2021/05/26 03:55:31;;;;;;;;;;;9.00;99.90;;;;;;10350925;28;19980;-80
2021/05/26 04:00:33;;;;;;;;;;;9.00;99.90;;;;;;10341813;28;19961;-80
2021/05/26 04:05:34;;;;;;;;;;;8.90;99.90;;;;;;10364477;28;19926;-80
2021/05/26 04:10:36;;;;;;;;;;;9.00;99.90;;;;;;10348404;28;19930;-80
2021/05/26 04:15:41;;;;;;;;;;;9.10;99.90;;;;;;10330128;28;19956;-80
2021/05/26 04:20:43;;;;;;;;;;;9.20;99.90;;;;;;10362231;28;19926;-80
2021/05/26 04:25:51;;;;;;;;;;;9.00;99.90;;;;;;10325921;28;19933;-80
2021/05/26 04:30:52;;;;;;;;;;;8.90;99.90;;;;;;10326236;28;19969;-80
2021/05/26 04:35:54;;;;;;;;;;;8.90;99.90;;;;;;10349814;28;19925;-80
2021/05/26 04:40:56;;;;;;;;;;;8.80;99.90;;;;;;10347436;28;19930;-81
2021/05/26 04:46:00;;;;;;;;;;;8.90;99.90;;;;;;10328002;28;20449;-81
2021/05/26 04:51:02;;;;;;;;;;;8.90;99.90;;;;;;10335163;28;19976;-81
2021/05/26 04:56:04;;;;;;;;;;;8.90;99.90;;;;;;10349909;28;19987;-81
2021/05/26 05:01:06;;;;;;;;;;;8.90;99.90;;;;;;10370176;28;20307;-81
2021/05/26 05:06:08;;;;;;;;;;;9.00;99.90;;;;;;10370911;28;19925;-81
2021/05/26 05:11:10;;;;;;;;;;;9.00;99.90;;;;;;10355197;28;19930;-81
2021/05/26 05:16:12;;;;;;;;;;;9.10;99.90;;;;;;10344538;28;19933;-81
2021/05/26 05:21:14;;;;;;;;;;;9.10;99.90;;;;;;10356845;28;19995;-80
2021/05/26 05:26:16;;;;;;;;;;;9.10;99.90;;;;;;10357761;28;20331;-81
2021/05/26 05:31:18;;;;;;;;;;;9.10;99.90;;;;;;10357772;28;19956;-81
2021/05/26 05:36:20;;;;;;;;;;;9.20;99.90;;;;;;10369852;28;19957;-81
2021/05/26 05:41:22;;;;;;;;;;;9.20;99.90;;;;;;10363035;28;19925;-81
2021/05/26 05:46:23;;;;;;;;;;;9.20;99.90;;;;;;10368297;28;19925;-81
2021/05/26 05:51:25;;;;;;;;;;;9.30;99.90;;;;;;10368074;28;20371;-81
2021/05/26 05:56:27;;;;;;;;;;;9.40;99.90;;;;;;10366616;28;20362;-81
2021/05/26 06:01:29;;;;;;;;;;;9.50;99.90;;;;;;10368994;28;19971;-81
2021/05/26 06:06:31;;;;;;;;;;;9.70;99.90;;;;;;10353129;28;20441;-81
2021/05/26 06:11:33;;;;;;;;;;;9.90;99.90;;;;;;10345842;28;19926;-81
2021/05/26 06:16:36;;;;;;;;;;;9.90;99.90;;;;;;10357385;28;19926;-81
2021/05/26 06:21:38;;;;;;;;;;;10.00;99.90;;;;;;10364891;28;19925;-81
2021/05/26 06:26:40;;;;;;;;;;;10.00;99.90;;;;;;10367217;28;20378;-81
2021/05/26 06:31:41;;;;;;;;;;;10.10;99.90;;;;;;10352446;28;20342;-81
2021/05/26 06:36:43;;;;;;;;;;;10.10;99.90;;;;;;10351432;28;19930;-80
2021/05/26 06:41:45;;;;;;;;;;;10.00;99.90;;;;;;10345397;28;19925;-80
2021/05/26 06:46:47;;;;;;;;;;;10.10;99.90;;;;;;10342911;28;19930;-80
2021/05/26 06:51:49;;;;;;;;;;;10.10;99.90;;;;;;10326501;28;19933;-81
2021/05/26 06:56:51;;;;;;;;;;;10.20;99.90;;;;;;10351802;28;19975;-81
2021/05/26 07:01:53;;;;;;;;;;;10.30;99.90;;;;;;10341554;28;19930;-81
2021/05/26 07:06:56;;;;;;;;;;;10.40;99.90;;;;;;10366767;28;19932;-81
2021/05/26 07:11:58;;;;;;;;;;;10.40;99.90;;;;;;10344214;28;19987;-81
2021/05/26 07:17:01;;;;;;;;;;;10.50;99.90;;;;;;10343142;28;19929;-81
2021/05/26 07:22:03;;;;;;;;;;;10.50;99.90;;;;;;10335215;28;20350;-81
2021/05/26 07:27:05;;;;;;;;;;;10.50;99.90;;;;;;10343582;28;19926;-81
2021/05/26 07:32:07;;;;;;;;;;;10.50;99.90;;;;;;10366270;28;19933;-81
2021/05/26 07:37:09;;;;;;;;;;;10.70;99.90;;;;;;10346482;28;19972;-81
2021/05/26 07:42:13;;;;;;;;;;;10.90;99.90;;;;;;10366321;28;19926;-81
2021/05/26 07:47:15;;;;;;;;;;;11.00;99.90;;;;;;10347015;28;19926;-82
2021/05/26 07:52:20;;;;;;;;;;;10.90;99.90;;;;;;10341202;28;20449;-81
2021/05/26 07:57:22;;;;;;;;;;;11.00;99.90;;;;;;10367744;28;19925;-81
2021/05/26 08:02:24;;;;;;;;;;;11.40;99.90;;;;;;10365882;28;19932;-81
2021/05/26 08:07:26;;;;;;;;;;;11.50;99.90;;;;;;10365685;28;20324;-81
2021/05/26 08:12:28;;;;;;;;;;;11.20;99.90;;;;;;10344854;28;19930;-81
2021/05/26 08:17:29;;;;;;;;;;;11.10;99.90;;;;;;10364267;28;19930;-81
2021/05/26 08:22:32;;;;;;;;;;;11.20;99.90;;;;;;10350385;28;19968;-80
2021/05/26 08:27:34;;;;;;;;;;;11.20;99.90;;;;;;10367131;28;19933;-81
2021/05/26 08:32:36;;;;;;;;;;;11.40;99.90;;;;;;10348524;28;19930;-81
2021/05/26 08:37:39;;;;;;;;;;;11.50;99.90;;;;;;10332651;28;20020;-81
2021/05/26 08:42:42;;;;;;;;;;;11.60;99.90;;;;;;10342549;28;19981;-81
2021/05/26 08:47:47;;;;;;;;;;;12.00;99.90;;;;;;10343991;28;19929;-81
2021/05/26 08:52:49;;;;;;;;;;;12.00;99.90;;;;;;10369348;28;19941;-81
2021/05/26 08:57:51;;;;;;;;;;;12.40;99.90;;;;;;10370430;28;19930;-81
2021/05/26 09:02:54;;;;;;;;;;;12.90;99.90;;;;;;10334202;28;20009;-81
2021/05/26 09:07:56;;;;;;;;;;;12.80;99.90;;;;;;10356270;28;19992;-81
2021/05/26 09:13:00;;;;;;;;;;;12.40;99.90;;;;;;10370581;28;19964;-81
2021/05/26 09:18:02;;;;;;;;;;;12.30;99.90;;;;;;10371419;28;19925;-81
2021/05/26 09:23:12;;;;;;;;;;;13.00;99.90;;;;;;10369569;28;19932;-81
2021/05/26 09:28:19;;;;;;;;;;;13.30;99.90;;;;;;10359106;28;19929;-81
2021/05/26 09:33:22;;;;;;;;;;;13.50;99.90;;;;;;10365287;28;19926;-81
2021/05/26 09:38:29;;;;;;;;;;;13.50;99.90;;;;;;10367804;28;19964;-81
2021/05/26 09:43:41;;;;;;;;;;;13.90;99.90;;;;;;10365973;28;20609;-81
2021/05/26 09:48:43;;;;;;;;;;;14.50;99.90;;;;;;10367902;28;19925;-81
2021/05/26 09:53:45;;;;;;;;;;;14.80;99.90;;;;;;10366787;28;19929;-81
2021/05/26 09:58:47;;;;;;;;;;;14.80;99.90;;;;;;10364861;28;20362;-81
2021/05/26 10:03:49;;;;;;;;;;;14.20;99.90;;;;;;10365333;28;20032;-81
2021/05/26 10:08:52;;;;;;;;;;;14.00;99.90;;;;;;10366333;28;19957;-81
2021/05/26 10:13:55;;;;;;;;;;;13.50;99.90;;;;;;10362314;28;19972;-81
2021/05/26 10:19:01;;;;;;;;;;;13.20;99.90;;;;;;10365394;28;19930;-81
2021/05/26 10:24:06;;;;;;;;;;;13.20;99.90;;;;;;10360097;28;19969;-80
2021/05/26 10:29:27;;;;;;;;;;;13.30;99.90;;;;;;10364447;28;19983;-81
2021/05/26 10:34:47;;;;;;;;;;;13.50;99.90;;;;;;10357658;28;19933;-81
2021/05/26 10:39:49;;;;;;;;;;;13.40;99.90;;;;;;10358545;28;19969;-81
2021/05/26 10:44:58;;;;;;;;;;;13.50;99.90;;;;;;10328237;28;19926;-82
2021/05/26 10:50:00;;;;;;;;;;;13.60;99.90;;;;;;10348828;28;19975;-81
2021/05/26 10:55:02;;;;;;;;;;;13.80;99.90;;;;;;10345136;28;19968;-81
2021/05/26 11:00:25;;;;;;;;;;;13.70;99.90;;;;;;10357225;28;19926;-81
2021/05/26 11:05:33;;;;;;;;;;;14.00;99.90;;;;;;10367509;28;19925;-83
2021/05/26 11:10:36;;;;;;;;;;;14.40;99.90;;;;;;10366495;28;19925;-83
2021/05/26 11:15:44;;;;;;;;;;;14.70;99.90;;;;;;10341291;28;19936;-83
2021/05/26 11:20:46;;;;;;;;;;;15.00;99.90;;;;;;10371488;28;19933;-83
2021/05/26 11:25:56;;;;;;;;;;;15.10;99.90;;;;;;10370319;28;19926;-83
2021/05/26 11:31:03;;;;;;;;;;;15.10;99.90;;;;;;10366746;28;19952;-83
2021/05/26 11:36:09;;;;;;;;;;;15.40;99.90;;;;;;10363138;28;19972;-83
2021/05/26 11:41:17;;;;;;;;;;;16.00;99.90;;;;;;10364841;28;19972;-80
2021/05/26 11:46:25;;;;;;;;;;;16.20;99.90;;;;;;10333709;28;19933;-81
2021/05/26 11:51:31;;;;;;;;;;;15.70;99.90;;;;;;10361209;28;19929;-81
2021/05/26 11:56:33;;;;;;;;;;;15.30;99.90;;;;;;10336551;28;20405;-82
2021/05/26 12:01:36;;;;;;;;;;;15.40;99.90;;;;;;10367279;28;19932;-81
2021/05/26 12:06:39;;;;;;;;;;;14.90;99.90;;;;;;10373733;28;20284;-82
2021/05/26 12:11:43;;;;;;;;;;;13.90;99.90;;;;;;10358199;28;19972;-82
2021/05/26 12:16:46;;;;;;;;;;;13.50;99.90;;;;;;10363094;28;20048;-81
2021/05/26 12:21:48;;;;;;;;;;;13.50;99.90;;;;;;10367308;28;19948;-83
2021/05/26 12:26:52;;;;;;;;;;;13.70;99.90;;;;;;10360795;28;19965;-81
2021/05/26 12:31:55;;;;;;;;;;;15.00;99.90;;;;;;10349816;28;19926;-82
2021/05/26 12:36:59;;;;;;;;;;;15.50;99.90;;;;;;10365875;28;20068;-82
2021/05/26 12:42:01;;;;;;;;;;;15.50;99.90;;;;;;10373014;28;20348;-81
2021/05/26 12:47:13;;;;;;;;;;;15.60;99.90;;;;;;10372322;28;20016;-82
2021/05/26 12:52:25;;;;;;;;;;;15.00;99.90;;;;;;10371290;28;20379;-82
2021/05/26 12:57:30;;;;;;;;;;;14.40;99.90;;;;;;10370044;28;20008;-81
2021/05/26 13:02:33;;;;;;;;;;;14.20;99.90;;;;;;10370203;28;19981;-82
2021/05/26 13:07:41;;;;;;;;;;;14.50;99.90;;;;;;10356269;28;20290;-82
2021/05/26 13:12:45;;;;;;;;;;;14.30;99.90;;;;;;10352522;28;19930;-82
2021/05/26 13:17:47;;;;;;;;;;;14.10;99.90;;;;;;10368809;28;19949;-82
2021/05/26 13:22:49;;;;;;;;;;;13.70;99.90;;;;;;10372167;28;19975;-82
2021/05/26 13:27:51;;;;;;;;;;;13.40;99.90;;;;;;10356052;28;19925;-82
2021/05/26 13:32:53;;;;;;;;;;;13.60;99.90;;;;;;10370461;28;19933;-82
2021/05/26 13:37:56;;;;;;;;;;;13.80;99.90;;;;;;10371594;28;19926;-82
2021/05/26 13:42:58;;;;;;;;;;;14.00;99.90;;;;;;10333877;28;20398;-82
2021/05/26 13:48:05;;;;;;;;;;;13.60;99.90;;;;;;10366356;28;20383;-82
2021/05/26 13:53:09;;;;;;;;;;;13.90;99.90;;;;;;10334096;28;19957;-81
2021/05/26 13:58:11;;;;;;;;;;;14.20;99.90;;;;;;10368492;28;19926;-82
2021/05/26 14:03:13;;;;;;;;;;;14.70;99.90;;;;;;10363551;28;20037;-81
2021/05/26 14:08:16;;;;;;;;;;;14.70;99.90;;;;;;10360146;28;19926;-82
2021/05/26 14:13:18;;;;;;;;;;;15.00;99.90;;;;;;10379885;28;19991;-83
2021/05/26 14:18:19;;;;;;;;;;;15.60;99.90;;;;;;10337619;28;19938;-82
2021/05/26 14:23:35;;;;;;;;;;;15.40;99.90;;;;;;10369390;28;19979;-82
2021/05/26 14:28:37;;;;;;;;;;;15.00;99.90;;;;;;10334407;28;20426;-82
2021/05/26 14:33:39;;;;;;;;;;;14.80;99.90;;;;;;10362045;28;19929;-82
2021/05/26 14:38:56;;;;;;;;;;;15.00;99.90;;;;;;10333527;28;20013;-82
2021/05/26 14:43:59;;;;;;;;;;;15.00;99.90;;;;;;10366417;28;19930;-83
2021/05/26 14:49:01;;;;;;;;;;;15.00;99.90;;;;;;10333671;28;19930;-83
2021/05/26 14:54:03;;;;;;;;;;;14.40;99.90;;;;;;10328784;28;19988;-82
2021/05/26 14:59:05;;;;;;;;;;;13.70;99.90;;;;;;10329391;28;19930;-83
2021/05/26 15:04:12;;;;;;;;;;;13.60;99.90;;;;;;10358196;28;20023;-83
2021/05/26 15:09:16;;;;;;;;;;;14.10;99.90;;;;;;10351229;28;19988;-83
2021/05/26 15:14:18;;;;;;;;;;;14.30;99.90;;;;;;10360850;28;19925;-83
2021/05/26 15:19:20;;;;;;;;;;;14.30;99.90;;;;;;10353710;28;19926;-85
2021/05/26 15:24:24;;;;;;;;;;;14.30;99.90;;;;;;10361381;28;20000;-83
2021/05/26 15:29:26;;;;;;;;;;;14.30;99.90;;;;;;10367232;28;19926;-84
2021/05/26 15:34:36;;;;;;;;;;;14.40;99.90;;;;;;10327882;28;19995;-82
2021/05/26 15:39:38;;;;;;;;;;;14.30;99.90;;;;;;10378122;28;20281;-83
2021/05/26 15:44:40;;;;;;;;;;;14.60;99.90;;;;;;10367268;28;19925;-82
2021/05/26 15:49:42;;;;;;;;;;;14.70;99.90;;;;;;10347285;28;19968;-81
2021/05/26 15:55:04;;;;;;;;;;;14.50;99.90;;;;;;10353713;28;20017;-82
2021/05/26 16:00:07;;;;;;;;;;;14.40;99.90;;;;;;10356562;28;20382;-82
2021/05/26 16:05:10;;;;;;;;;;;14.40;99.90;;;;;;10354123;28;19979;-81
2021/05/26 16:10:12;;;;;;;;;;;14.80;99.90;;;;;;10363801;28;19926;-82
2021/05/26 16:15:16;;;;;;;;;;;14.60;99.90;;;;;;10365518;28;19972;-82
2021/05/26 16:20:20;;;;;;;;;;;14.20;99.90;;;;;;10366927;28;19953;-81
2021/05/26 16:25:24;;;;;;;;;;;13.10;99.90;;;;;;10371540;28;19951;-81
2021/05/26 16:30:27;;;;;;;;;;;12.10;99.90;;;;;;10362038;28;19926;-81
2021/05/26 16:35:29;;;;;;;;;;;11.70;99.90;;;;;;10355768;28;19976;-80
2021/05/26 16:40:31;;;;;;;;;;;11.40;99.90;;;;;;10372783;28;19925;-81
2021/05/26 16:45:33;;;;;;;;;;;11.30;99.90;;;;;;10378744;28;19925;-81
2021/05/26 16:50:35;;;;;;;;;;;11.20;99.90;;;;;;10378598;28;19925;-81
2021/05/26 16:55:39;;;;;;;;;;;11.30;99.90;;;;;;10364639;28;19932;-82
2021/05/26 17:00:42;;;;;;;;;;;11.70;99.90;;;;;;10352755;28;19926;-82
2021/05/26 17:05:44;;;;;;;;;;;12.60;99.90;;;;;;10375053;28;19965;-82
2021/05/26 17:10:46;;;;;;;;;;;12.90;99.90;;;;;;10339403;28;19977;-81
2021/05/26 17:15:51;;;;;;;;;;;12.60;99.90;;;;;;10362506;28;19925;-82
2021/05/26 17:20:53;;;;;;;;;;;12.40;99.90;;;;;;10372342;28;19968;-83
2021/05/26 17:25:56;;;;;;;;;;;12.30;99.90;;;;;;10342242;28;19925;-82
2021/05/26 17:31:00;;;;;;;;;;;12.20;99.90;;;;;;10368180;28;20375;-83
2021/05/26 17:36:02;;;;;;;;;;;12.00;99.90;;;;;;10362977;28;19933;-83
2021/05/26 17:41:13;;;;;;;;;;;11.80;99.90;;;;;;10374012;28;20429;-83
2021/05/26 17:46:16;;;;;;;;;;;11.70;99.90;;;;;;10332830;28;20028;-83
2021/05/26 17:51:18;;;;;;;;;;;11.40;99.90;;;;;;10363045;28;19980;-83
2021/05/26 17:56:20;;;;;;;;;;;11.10;99.90;;;;;;10363230;28;20049;-83
2021/05/26 18:01:22;;;;;;;;;;;10.90;99.90;;;;;;10363512;28;20050;-83
2021/05/26 18:06:30;;;;;;;;;;;10.90;99.90;;;;;;10351273;28;19949;-83
2021/05/26 18:11:34;;;;;;;;;;;10.90;99.90;;;;;;10360554;28;20442;-83
2021/05/26 18:16:39;;;;;;;;;;;11.00;99.90;;;;;;10368357;28;19929;-83
2021/05/26 18:21:42;;;;;;;;;;;10.90;99.90;;;;;;10364973;28;20451;-83
2021/05/26 18:26:46;;;;;;;;;;;11.10;99.90;;;;;;10362186;28;19956;-82
2021/05/26 18:31:54;;;;;;;;;;;11.40;99.90;;;;;;10371930;28;20015;-82
2021/05/26 18:37:02;;;;;;;;;;;11.70;99.90;;;;;;10341849;28;20670;-83
2021/05/26 18:42:06;;;;;;;;;;;11.70;99.90;;;;;;10359906;28;19936;-83
2021/05/26 18:47:10;;;;;;;;;;;11.50;99.90;;;;;;10369207;28;19926;-82
2021/05/26 18:52:14;;;;;;;;;;;11.10;99.90;;;;;;10370500;28;20333;-83
2021/05/26 18:57:16;;;;;;;;;;;10.80;99.90;;;;;;10369104;28;19965;-83
2021/05/26 19:02:19;;;;;;;;;;;10.50;99.90;;;;;;10369571;28;20513;-82
2021/05/26 19:07:23;;;;;;;;;;;10.30;99.90;;;;;;10366599;28;19925;-82
2021/05/26 19:12:25;;;;;;;;;;;10.10;99.90;;;;;;10366250;28;20008;-82
2021/05/26 19:17:28;;;;;;;;;;;9.90;99.90;;;;;;10360722;28;19961;-82
2021/05/26 19:22:30;;;;;;;;;;;9.90;99.90;;;;;;10369882;28;19930;-79
2021/05/26 19:27:32;;;;;;;;;;;10.00;99.90;;;;;;10365224;28;19926;-80
2021/05/26 19:32:35;;;;;;;;;;;10.00;99.90;;;;;;10365864;28;20064;-80
2021/05/26 19:37:37;;;;;;;;;;;10.00;99.90;;;;;;10366971;28;20019;-80
2021/05/26 19:42:40;;;;;;;;;;;10.00;99.90;;;;;;10367378;28;19976;-80
2021/05/26 19:47:42;;;;;;;;;;;9.90;99.90;;;;;;10367409;28;19988;-80
2021/05/26 19:52:44;;;;;;;;;;;9.80;99.90;;;;;;10357986;28;19965;-81
2021/05/26 19:57:47;;;;;;;;;;;9.80;99.90;;;;;;10364818;28;19925;-81
2021/05/26 20:02:49;;;;;;;;;;;9.60;99.90;;;;;;10367270;28;19925;-81
2021/05/26 20:07:51;;;;;;;;;;;9.50;99.90;;;;;;10353234;28;19925;-81
2021/05/26 20:12:53;;;;;;;;;;;9.30;99.90;;;;;;10366772;28;20444;-81
2021/05/26 20:17:58;;;;;;;;;;;9.20;99.90;;;;;;10363098;28;19926;-81
2021/05/26 20:23:00;;;;;;;;;;;9.20;99.90;;;;;;10363883;28;20024;-81
2021/05/26 20:28:02;;;;;;;;;;;9.00;99.90;;;;;;10342481;28;20378;-81
2021/05/26 20:33:04;;;;;;;;;;;8.90;99.90;;;;;;10373953;28;19926;-80
2021/05/26 20:38:07;;;;;;;;;;;8.90;99.90;;;;;;10350095;28;20647;-81
2021/05/26 20:43:09;;;;;;;;;;;8.80;99.90;;;;;;10364765;28;19956;-81
2021/05/26 20:48:11;;;;;;;;;;;8.70;99.90;;;;;;10374581;28;20441;-81
2021/05/26 20:53:12;;;;;;;;;;;8.70;99.90;;;;;;10351421;28;20036;-80
2021/05/26 20:58:14;;;;;;;;;;;8.60;99.90;;;;;;10366126;28;19984;-80
2021/05/26 21:03:16;;;;;;;;;;;8.50;99.90;;;;;;10371694;28;19995;-80
2021/05/26 21:08:18;;;;;;;;;;;8.50;99.90;;;;;;10356681;28;19965;-81
2021/05/26 21:13:20;;;;;;;;;;;8.40;99.90;;;;;;10362814;28;20012;-80
2021/05/26 21:18:22;;;;;;;;;;;8.40;99.90;;;;;;10332055;28;20437;-81
2021/05/26 21:23:26;;;;;;;;;;;8.40;99.90;;;;;;10363486;28;20334;-81
2021/05/26 21:28:28;;;;;;;;;;;8.40;99.90;;;;;;10356222;28;19926;-81
2021/05/26 21:33:30;;;;;;;;;;;8.30;99.90;;;;;;10370046;28;20044;-81
2021/05/26 21:38:32;;;;;;;;;;;8.30;99.90;;;;;;10345984;28;19926;-81
2021/05/26 21:43:34;;;;;;;;;;;8.20;99.90;;;;;;10359151;28;19957;-81
2021/05/26 21:48:36;;;;;;;;;;;8.30;99.90;;;;;;10359893;28;19952;-80
2021/05/26 21:53:38;;;;;;;;;;;8.20;99.90;;;;;;10386723;28;19968;-81
2021/05/26 21:58:40;;;;;;;;;;;8.10;99.90;;;;;;10370755;28;19968;-81
2021/05/26 22:03:41;;;;;;;;;;;8.10;99.90;;;;;;10372675;28;19980;-81
2021/05/26 22:08:43;;;;;;;;;;;8.00;99.90;;;;;;10338629;28;19929;-81
2021/05/26 22:13:45;;;;;;;;;;;8.00;99.90;;;;;;10362955;28;19933;-81
2021/05/26 22:18:47;;;;;;;;;;;8.00;99.90;;;;;;10355387;28;20387;-81
2021/05/26 22:23:49;;;;;;;;;;;8.00;99.90;;;;;;10369646;28;19926;-81
2021/05/26 22:28:50;;;;;;;;;;;8.00;99.90;;;;;;10369290;28;20466;-81
2021/05/26 22:33:52;;;;;;;;;;;8.10;99.90;;;;;;10370762;28;19980;-81
2021/05/26 22:38:54;;;;;;;;;;;8.20;99.90;;;;;;10369501;28;19925;-81
2021/05/26 22:43:56;;;;;;;;;;;8.20;99.90;;;;;;10370432;28;20314;-81
2021/05/26 22:49:00;;;;;;;;;;;8.20;99.90;;;;;;10370639;28;19975;-81
2021/05/26 22:54:02;;;;;;;;;;;8.30;99.90;;;;;;10344134;28;19925;-81
2021/05/26 22:59:05;;;;;;;;;;;8.40;99.90;;;;;;10360069;28;19980;-81
2021/05/26 23:04:06;;;;;;;;;;;8.50;99.90;;;;;;10369622;28;19961;-81
2021/05/26 23:09:08;;;;;;;;;;;8.60;99.90;;;;;;10369643;28;19995;-81
2021/05/26 23:14:10;;;;;;;;;;;8.70;99.90;;;;;;10368377;28;19930;-81
2021/05/26 23:19:13;;;;;;;;;;;8.70;99.90;;;;;;10356998;28;19965;-81
2021/05/26 23:24:14;;;;;;;;;;;8.80;99.90;;;;;;10361288;28;20113;-81
2021/05/26 23:29:17;;;;;;;;;;;8.80;99.90;;;;;;10347038;28;19930;-81
2021/05/26 23:34:18;;;;;;;;;;;8.80;99.90;;;;;;10366568;28;20060;-81
2021/05/26 23:39:20;;;;;;;;;;;8.90;99.90;;;;;;10366319;28;19995;-81
2021/05/26 23:44:22;;;;;;;;;;;8.90;99.90;;;;;;10353543;28;20049;-81
2021/05/26 23:49:24;;;;;;;;;;;8.90;99.90;;;;;;10355437;28;20017;-81
2021/05/26 23:54:26;;;;;;;;;;;9.00;99.90;;;;;;10343192;28;19929;-81
2021/05/26 23:59:28;;;;;;;;;;;9.00;99.90;;;;;;10334867;28;19930;-81
